createdAt,value
2023-03-12T00:01:23.254Z,86.29
2023-03-12T00:03:52.076Z,86.45
2023-03-12T00:06:21.454Z,86.28
2023-03-12T00:08:49.784Z,86.48
2023-03-12T00:11:21.079Z,86.52
2023-03-12T00:13:55.615Z,86.44
2023-03-12T00:16:24.946Z,86.55
2023-03-12T00:18:55.206Z,86.59
2023-03-12T00:21:23.823Z,86.83
2023-03-12T00:23:53.314Z,86.67
2023-03-12T00:26:21.748Z,86.59
2023-03-12T00:28:50.789Z,86.46
2023-03-12T00:31:29.962Z,86.62
2023-03-12T00:33:58.384Z,86.52
2023-03-12T00:36:30.837Z,86.76
2023-03-12T00:39:00.573Z,86.69
2023-03-12T00:41:30.498Z,86.73
2023-03-12T00:43:58.520Z,86.73
2023-03-12T00:46:26.835Z,86.67
2023-03-12T00:48:54.843Z,86.54
2023-03-12T00:51:23.038Z,86.30
2023-03-12T00:53:51.012Z,86.43
2023-03-12T00:56:18.882Z,86.46
2023-03-12T00:58:46.932Z,86.56
2023-03-12T01:01:15.666Z,86.67
2023-03-12T01:03:43.560Z,86.87
2023-03-12T01:06:11.809Z,87.17
2023-03-12T01:08:39.970Z,87.18
2023-03-12T01:11:07.930Z,87.33
2023-03-12T01:13:35.721Z,87.50
2023-03-12T01:16:03.761Z,87.42
2023-03-12T01:18:31.989Z,87.80
2023-03-12T01:20:59.975Z,87.65
2023-03-12T01:23:28.097Z,88.31
2023-03-12T01:25:56.153Z,88.11
2023-03-12T01:28:25.687Z,88.37
2023-03-12T01:30:53.597Z,88.24
2023-03-12T01:33:23.005Z,88.43
2023-03-12T01:35:51.038Z,88.76
2023-03-12T01:38:20.860Z,88.52
2023-03-12T01:40:48.763Z,88.71
2023-03-12T01:43:38.488Z,88.99
2023-03-12T01:46:29.689Z,88.82
2023-03-12T01:49:03.717Z,88.94
2023-03-12T01:51:59.784Z,88.77
2023-03-12T01:54:57.649Z,88.87
2023-03-12T01:57:37.091Z,88.76
2023-03-12T02:00:13.877Z,88.66
2023-03-12T02:02:44.732Z,88.66
2023-03-12T02:05:35.552Z,88.74
2023-03-12T02:08:03.748Z,88.76
2023-03-12T02:10:31.798Z,88.76
2023-03-12T02:12:59.677Z,88.72
2023-03-12T02:15:27.982Z,88.71
2023-03-12T02:17:55.925Z,88.70
2023-03-12T02:21:01.409Z,88.71
2023-03-12T02:23:38.389Z,88.74
2023-03-12T02:26:08.153Z,88.87
2023-03-12T02:28:43.811Z,88.89
2023-03-12T02:31:20.058Z,88.81
2023-03-12T02:33:48.252Z,88.74
2023-03-12T02:36:16.057Z,89.03
2023-03-12T02:38:49.350Z,88.90
2023-03-12T02:41:29.904Z,88.92
2023-03-12T02:44:14.576Z,89.42
2023-03-12T02:46:47.387Z,89.06
2023-03-12T02:49:18.148Z,89.06
2023-03-12T02:51:48.646Z,89.25
2023-03-12T02:54:19.012Z,89.28
2023-03-12T02:56:48.375Z,89.21
2023-03-12T02:59:20.717Z,89.17
2023-03-12T03:01:55.088Z,89.17
2023-03-12T03:04:24.800Z,89.47
2023-03-12T03:06:52.858Z,89.21
2023-03-12T03:09:22.438Z,89.26
2023-03-12T03:11:50.889Z,89.27
2023-03-12T03:14:19.361Z,89.24
2023-03-12T03:16:49.264Z,89.20
2023-03-12T03:19:17.779Z,89.29
2023-03-12T03:21:45.905Z,89.45
2023-03-12T03:24:13.857Z,89.50
2023-03-12T03:26:41.725Z,89.37
2023-03-12T03:29:10.081Z,89.44
2023-03-12T03:31:38.024Z,89.58
2023-03-12T03:34:06.178Z,89.39
2023-03-12T03:36:34.268Z,89.40
2023-03-12T03:39:05.843Z,89.56
2023-03-12T03:41:34.729Z,89.55
2023-03-12T03:44:02.644Z,89.65
2023-03-12T03:46:31.401Z,89.74
2023-03-12T03:49:03.647Z,89.83
2023-03-12T03:51:32.207Z,90.16
2023-03-12T03:54:04.568Z,90.27
2023-03-12T03:56:32.712Z,90.56
2023-03-12T03:59:02.077Z,90.52
2023-03-12T04:01:31.548Z,90.53
2023-03-12T04:04:00.297Z,90.54
2023-03-12T04:06:29.861Z,90.64
2023-03-12T04:08:59.128Z,90.68
2023-03-12T04:11:27.437Z,90.86
2023-03-12T04:13:57.659Z,90.90
2023-03-12T04:16:27.074Z,90.87
2023-03-12T04:18:55.385Z,90.64
2023-03-12T04:21:23.925Z,90.71
2023-03-12T04:23:52.385Z,90.52
2023-03-12T04:26:22.346Z,90.51
2023-03-12T04:28:50.248Z,90.35
2023-03-12T04:31:18.206Z,90.40
2023-03-12T04:33:50.882Z,90.30
2023-03-12T04:36:19.511Z,90.27
2023-03-12T04:38:49.867Z,90.57
2023-03-12T04:41:19.167Z,90.39
2023-03-12T04:43:50.400Z,90.44
2023-03-12T04:46:19.012Z,90.31
2023-03-12T04:48:46.906Z,90.32
2023-03-12T04:51:14.969Z,90.29
2023-03-12T04:53:43.350Z,90.20
2023-03-12T04:56:12.915Z,90.11
2023-03-12T04:58:40.900Z,90.11
2023-03-12T05:01:30.320Z,90.10
2023-03-12T05:03:58.779Z,90.03
2023-03-12T05:06:27.094Z,89.89
2023-03-12T05:08:57.433Z,89.75
2023-03-12T05:11:26.065Z,89.61
2023-03-12T05:13:53.868Z,89.53
2023-03-12T05:16:21.915Z,89.48
2023-03-12T05:18:49.990Z,89.38
2023-03-12T05:21:20.761Z,89.30
2023-03-12T05:23:49.502Z,89.20
2023-03-12T05:26:18.892Z,88.97
2023-03-12T05:28:47.487Z,88.87
2023-03-12T05:31:16.854Z,88.81
2023-03-12T05:33:46.716Z,88.83
2023-03-12T05:36:16.364Z,88.86
2023-03-12T05:38:47.924Z,88.72
2023-03-12T05:41:26.806Z,88.63
2023-03-12T05:43:58.245Z,88.69
2023-03-12T05:46:28.130Z,88.66
2023-03-12T05:48:56.244Z,88.49
2023-03-12T05:51:24.318Z,88.45
2023-03-12T05:53:52.681Z,88.46
2023-03-12T05:56:20.814Z,88.30
2023-03-12T05:58:49.973Z,88.24
2023-03-12T06:01:25.282Z,88.21
2023-03-12T06:03:55.406Z,88.15
2023-03-12T06:06:25.417Z,88.10
2023-03-12T06:08:53.650Z,88.13
2023-03-12T06:11:21.748Z,88.01
2023-03-12T06:13:49.681Z,88.01
2023-03-12T06:16:24.017Z,88.03
2023-03-12T06:19:03.337Z,88.04
2023-03-12T06:21:35.285Z,87.98
2023-03-12T06:24:04.907Z,87.85
2023-03-12T06:26:44.158Z,88.00
2023-03-12T06:29:12.198Z,87.96
2023-03-12T06:31:42.081Z,87.83
2023-03-12T06:34:10.433Z,87.86
2023-03-12T06:36:38.448Z,87.91
2023-03-12T06:39:06.492Z,87.69
2023-03-12T06:41:34.585Z,87.54
2023-03-12T06:44:05.982Z,87.50
2023-03-12T06:46:33.939Z,87.56
2023-03-12T06:49:02.298Z,87.75
2023-03-12T06:51:30.186Z,87.81
2023-03-12T06:53:58.062Z,87.99
2023-03-12T06:56:25.845Z,87.93
2023-03-12T06:58:53.653Z,87.83
2023-03-12T07:01:22.604Z,87.83
2023-03-12T07:03:50.559Z,87.81
2023-03-12T07:06:21.908Z,87.88
2023-03-12T07:08:51.335Z,87.72
2023-03-12T07:11:19.222Z,87.77
2023-03-12T07:13:47.739Z,87.67
2023-03-12T07:16:15.706Z,87.68
2023-03-12T07:18:43.723Z,87.65
2023-03-12T07:21:11.528Z,87.50
2023-03-12T07:23:39.383Z,87.34
2023-03-12T07:26:07.879Z,87.30
2023-03-12T07:28:35.758Z,87.24
2023-03-12T07:31:05.168Z,87.13
2023-03-12T07:33:34.529Z,86.98
2023-03-12T07:36:03.445Z,86.92
2023-03-12T07:38:32.025Z,86.68
2023-03-12T07:41:00.924Z,86.57
2023-03-12T07:43:29.105Z,86.53
2023-03-12T07:45:57.058Z,86.27
2023-03-12T07:48:24.976Z,86.41
2023-03-12T07:50:52.993Z,86.34
2023-03-12T07:53:21.022Z,86.17
2023-03-12T07:55:49.058Z,86.19
2023-03-12T07:58:17.893Z,86.16
2023-03-12T08:00:46.592Z,85.91
2023-03-12T08:03:14.684Z,85.91
2023-03-12T08:05:43.007Z,85.80
2023-03-12T08:08:11.087Z,85.66
2023-03-12T08:10:39.162Z,85.61
2023-03-12T08:13:07.062Z,85.46
2023-03-12T08:15:35.012Z,85.26
2023-03-12T08:18:02.884Z,84.93
2023-03-12T08:20:30.666Z,84.72
2023-03-12T08:22:58.507Z,84.69
2023-03-12T08:25:26.654Z,84.58
2023-03-12T08:27:54.827Z,84.23
2023-03-12T08:30:22.721Z,83.81
2023-03-12T08:32:50.593Z,83.76
2023-03-12T08:35:18.500Z,83.31
2023-03-12T08:37:46.375Z,83.42
2023-03-12T08:40:14.603Z,83.27
2023-03-12T08:42:46.069Z,83.03
2023-03-12T08:45:16.055Z,83.14
2023-03-12T08:47:44.587Z,82.74
2023-03-12T08:50:16.716Z,82.63
2023-03-12T08:52:44.756Z,82.44
2023-03-12T08:55:12.874Z,82.72
2023-03-12T08:57:41.330Z,82.34
2023-03-12T09:00:14.983Z,82.01
2023-03-12T09:02:47.189Z,81.82
2023-03-12T09:05:15.475Z,81.17
2023-03-12T09:07:43.377Z,80.91
2023-03-12T09:10:11.644Z,80.99
2023-03-12T09:12:39.618Z,81.08
2023-03-12T09:15:09.100Z,80.71
2023-03-12T09:17:38.778Z,80.12
2023-03-12T09:20:09.424Z,79.52
2023-03-12T09:22:37.474Z,79.65
2023-03-12T09:25:08.843Z,79.76
2023-03-12T09:27:43.250Z,79.08
2023-03-12T09:30:17.254Z,79.17
2023-03-12T09:32:46.174Z,79.41
2023-03-12T09:35:16.233Z,79.36
2023-03-12T09:37:48.507Z,79.04
2023-03-12T09:40:29.084Z,78.53
2023-03-12T09:43:13.887Z,78.60
2023-03-12T09:45:47.543Z,78.70
2023-03-12T09:48:37.536Z,78.40
2023-03-12T09:51:41.164Z,77.79
2023-03-12T09:54:55.466Z,77.67
2023-03-12T09:57:26.648Z,77.88
2023-03-12T09:59:54.585Z,77.55
2023-03-12T10:02:42.692Z,76.43
2023-03-12T10:05:35.434Z,77.05
2023-03-12T10:08:51.170Z,76.74
2023-03-12T10:12:19.927Z,76.57
2023-03-12T10:15:26.107Z,76.49
2023-03-12T10:18:20.949Z,76.13
2023-03-12T10:21:07.639Z,76.22
2023-03-12T10:24:06.161Z,76.06
2023-03-12T10:26:50.714Z,76.49
2023-03-12T10:29:29.417Z,76.26
2023-03-12T10:32:16.879Z,76.51
2023-03-12T10:35:13.055Z,76.85
2023-03-12T10:38:09.863Z,76.90
2023-03-12T10:40:39.197Z,76.55
2023-03-12T10:43:07.467Z,76.76
2023-03-12T10:46:05.985Z,76.49
2023-03-12T10:48:33.837Z,76.02
2023-03-12T10:51:09.214Z,76.22
2023-03-12T10:53:44.742Z,76.31
2023-03-12T10:56:17.585Z,76.39
2023-03-12T10:58:52.383Z,76.58
2023-03-12T11:01:26.583Z,76.96
2023-03-12T11:04:17.745Z,76.67
2023-03-12T11:07:04.066Z,76.66
2023-03-12T11:09:31.911Z,76.38
2023-03-12T11:11:59.973Z,76.45
2023-03-12T11:14:30.152Z,76.83
2023-03-12T11:17:24.392Z,76.86
2023-03-12T11:19:52.470Z,77.09
2023-03-12T11:22:35.256Z,77.09
2023-03-12T11:25:20.149Z,76.95
2023-03-12T11:27:56.788Z,76.90
2023-03-12T11:30:35.390Z,77.19
2023-03-12T11:33:04.158Z,77.13
2023-03-12T11:35:39.952Z,77.16
2023-03-12T11:38:21.498Z,77.49
2023-03-12T11:41:12.601Z,77.61
2023-03-12T11:44:13.629Z,77.55
2023-03-12T11:47:05.310Z,77.62
2023-03-12T11:49:58.648Z,77.39
2023-03-12T11:52:46.735Z,77.39
2023-03-12T11:56:19.738Z,77.36
2023-03-12T11:59:35.352Z,77.44
2023-03-12T12:02:59.703Z,77.62
2023-03-12T12:06:04.406Z,77.42
2023-03-12T12:08:57.637Z,77.12
2023-03-12T12:11:51.180Z,76.88
2023-03-12T12:14:40.873Z,76.59
2023-03-12T12:17:11.763Z,76.39
2023-03-12T12:20:11.330Z,76.14
2023-03-12T12:23:03.452Z,75.56
2023-03-12T12:25:41.321Z,75.23
2023-03-12T12:28:54.497Z,75.13
2023-03-12T12:31:38.093Z,74.77
2023-03-12T12:35:04.967Z,74.66
2023-03-12T12:38:14.644Z,73.50
2023-03-12T12:40:55.563Z,73.61
2023-03-12T12:43:42.661Z,73.39
2023-03-12T12:46:24.790Z,73.66
2023-03-12T12:49:17.393Z,73.47
2023-03-12T12:51:55.865Z,73.35
2023-03-12T12:54:30.784Z,73.25
2023-03-12T12:57:25.263Z,72.30
2023-03-12T13:00:23.914Z,72.37
2023-03-12T13:02:56.223Z,72.11
2023-03-12T13:05:36.473Z,72.64
2023-03-12T13:08:08.743Z,72.44
2023-03-12T13:10:36.609Z,71.98
2023-03-12T13:13:18.082Z,71.34
2023-03-12T13:15:47.627Z,71.12
2023-03-12T13:18:26.252Z,71.01
2023-03-12T13:20:54.071Z,70.31
2023-03-12T13:23:45.221Z,69.86
2023-03-12T13:26:46.757Z,69.29
2023-03-12T13:29:29.818Z,69.47
2023-03-12T13:31:57.999Z,68.84
2023-03-12T13:34:46.260Z,69.25
2023-03-12T13:37:46.595Z,68.39
2023-03-12T13:40:29.412Z,68.85
2023-03-12T13:43:10.087Z,68.18
2023-03-12T13:45:41.311Z,68.50
2023-03-12T13:48:19.601Z,68.03
2023-03-12T13:50:58.892Z,66.91
2023-03-12T13:53:40.631Z,67.56
2023-03-12T13:56:19.224Z,67.91
2023-03-12T13:59:14.452Z,67.91
2023-03-12T14:01:50.436Z,67.98
2023-03-12T14:04:24.906Z,67.67
2023-03-12T14:07:30.024Z,66.73
2023-03-12T14:10:15.823Z,65.94
2023-03-12T14:13:17.490Z,66.07
2023-03-12T14:15:48.589Z,66.42
2023-03-12T14:18:26.876Z,66.97
2023-03-12T14:21:07.038Z,67.38
2023-03-12T14:23:44.145Z,66.88
2023-03-12T14:26:42.033Z,66.23
2023-03-12T14:29:45.213Z,66.56
2023-03-12T14:32:20.976Z,66.13
2023-03-12T14:35:06.613Z,66.05
2023-03-12T14:37:46.718Z,66.36
2023-03-12T14:40:23.913Z,67.12
2023-03-12T14:42:51.756Z,67.67
2023-03-12T14:45:27.148Z,67.43
2023-03-12T14:47:58.685Z,67.75
2023-03-12T14:50:40.274Z,68.56
2023-03-12T14:53:31.469Z,68.76
2023-03-12T14:56:24.801Z,69.18
2023-03-12T14:58:52.623Z,69.88
2023-03-12T15:01:26.023Z,70.17
2023-03-12T15:04:01.268Z,70.57
2023-03-12T15:06:47.081Z,70.83
2023-03-12T15:09:22.243Z,71.20
2023-03-12T15:12:18.862Z,71.50
2023-03-12T15:14:49.284Z,71.76
2023-03-12T15:17:22.006Z,71.65
2023-03-12T15:19:50.903Z,71.73
2023-03-12T15:22:25.754Z,71.94
2023-03-12T15:24:54.345Z,71.83
2023-03-12T15:27:22.169Z,72.03
2023-03-12T15:29:51.095Z,71.89
2023-03-12T15:32:22.625Z,71.95
2023-03-12T15:34:59.076Z,72.00
2023-03-12T15:37:41.131Z,71.72
2023-03-12T15:40:25.679Z,71.76
2023-03-12T15:42:59.167Z,71.82
2023-03-12T15:45:38.800Z,71.70
2023-03-12T15:48:26.593Z,71.90
2023-03-12T15:50:54.724Z,72.19
2023-03-12T15:53:23.108Z,72.48
2023-03-12T15:56:09.493Z,72.84
2023-03-12T15:58:41.223Z,73.35
2023-03-12T16:01:18.772Z,73.66
2023-03-12T16:03:46.757Z,74.06
2023-03-12T16:06:25.485Z,74.36
2023-03-12T16:08:59.093Z,74.64
2023-03-12T16:11:31.362Z,74.77
2023-03-12T16:14:13.471Z,75.15
2023-03-12T16:16:41.266Z,75.43
2023-03-12T16:19:22.491Z,75.64
2023-03-12T16:21:50.954Z,75.79
2023-03-12T16:24:18.808Z,76.01
2023-03-12T16:26:53.258Z,76.44
2023-03-12T16:29:23.150Z,76.56
2023-03-12T16:31:56.314Z,76.79
2023-03-12T16:34:24.639Z,76.90
2023-03-12T16:36:52.629Z,77.03
2023-03-12T16:39:20.989Z,77.22
2023-03-12T16:41:48.820Z,77.28
2023-03-12T16:44:21.914Z,77.37
2023-03-12T16:46:49.877Z,77.65
2023-03-12T16:49:20.009Z,77.92
2023-03-12T16:51:48.077Z,78.08
2023-03-12T16:54:15.899Z,78.48
2023-03-12T16:56:48.780Z,78.56
2023-03-12T16:59:31.783Z,78.59
2023-03-12T17:01:59.905Z,78.68
2023-03-12T17:04:27.769Z,78.84
2023-03-12T17:06:55.739Z,79.22
2023-03-12T17:09:24.770Z,79.39
2023-03-12T17:11:52.662Z,79.73
2023-03-12T17:14:22.997Z,79.85
2023-03-12T17:16:51.239Z,79.95
2023-03-12T17:19:19.265Z,80.18
2023-03-12T17:21:49.314Z,80.41
2023-03-12T17:24:17.840Z,80.79
2023-03-12T17:26:46.445Z,81.17
2023-03-12T17:29:14.223Z,81.19
2023-03-12T17:31:41.993Z,81.34
2023-03-12T17:34:09.951Z,81.55
2023-03-12T17:36:38.416Z,81.85
2023-03-12T17:39:06.382Z,82.24
2023-03-12T17:41:34.357Z,82.30
2023-03-12T17:44:03.744Z,82.59
2023-03-12T17:46:31.698Z,82.93
2023-03-12T17:48:59.633Z,82.93
2023-03-12T17:51:27.477Z,83.28
2023-03-12T17:53:55.569Z,83.56
2023-03-12T17:56:23.750Z,83.71
2023-03-12T17:58:51.930Z,83.98
2023-03-12T18:01:20.035Z,84.09
2023-03-12T18:03:50.004Z,84.10
2023-03-12T18:06:19.770Z,84.29
2023-03-12T18:08:47.787Z,84.58
2023-03-12T18:11:15.754Z,85.07
2023-03-12T18:13:43.540Z,84.93
2023-03-12T18:16:11.636Z,84.96
2023-03-12T18:18:39.672Z,85.06
2023-03-12T18:21:07.546Z,85.06
2023-03-12T18:23:35.435Z,85.10
2023-03-12T18:26:04.668Z,85.34
2023-03-12T18:28:32.719Z,85.35
2023-03-12T18:31:00.519Z,85.33
2023-03-12T18:33:28.393Z,85.23
2023-03-12T18:35:56.841Z,85.71
2023-03-12T18:38:24.745Z,85.77
2023-03-12T18:40:53.741Z,85.69
2023-03-12T18:43:22.072Z,85.85
2023-03-12T18:45:50.132Z,85.82
2023-03-12T18:48:18.005Z,86.00
2023-03-12T18:50:45.759Z,86.07
2023-03-12T18:53:13.512Z,86.20
2023-03-12T18:55:41.372Z,86.17
2023-03-12T18:58:09.184Z,85.99
2023-03-12T19:00:37.032Z,86.26
2023-03-12T19:03:05.115Z,86.23
2023-03-12T19:05:33.428Z,86.32
2023-03-12T19:08:02.505Z,86.22
2023-03-12T19:10:30.320Z,86.41
2023-03-12T19:12:59.092Z,86.43
2023-03-12T19:15:27.597Z,86.40
2023-03-12T19:17:55.405Z,86.47
2023-03-12T19:20:23.387Z,86.49
2023-03-12T19:22:51.281Z,86.46
2023-03-12T19:25:20.421Z,86.67
2023-03-12T19:27:48.602Z,86.63
2023-03-12T19:30:16.564Z,86.82
2023-03-12T19:32:44.886Z,86.68
2023-03-12T19:35:14.995Z,86.93
2023-03-12T19:37:42.951Z,87.07
2023-03-12T19:40:13.277Z,86.91
2023-03-12T19:42:41.350Z,86.87
2023-03-12T19:45:10.736Z,87.09
2023-03-12T19:47:38.645Z,87.29
2023-03-12T19:50:09.263Z,87.43
2023-03-12T19:52:37.522Z,87.28
2023-03-12T19:55:05.985Z,87.17
2023-03-12T19:57:34.261Z,87.13
2023-03-12T20:00:02.534Z,87.09
2023-03-12T20:02:32.372Z,87.41
2023-03-12T20:05:00.390Z,87.53
2023-03-12T20:07:28.190Z,87.43
2023-03-12T20:09:56.602Z,87.46
2023-03-12T20:12:24.963Z,87.69
2023-03-12T20:14:52.843Z,87.85
2023-03-12T20:17:20.975Z,87.92
2023-03-12T20:19:48.832Z,87.98
2023-03-12T20:22:16.629Z,88.09
2023-03-12T20:24:44.708Z,88.19
2023-03-12T20:27:12.532Z,88.06
2023-03-12T20:29:40.329Z,88.25
2023-03-12T20:32:08.156Z,88.35
2023-03-12T20:34:37.390Z,88.33
2023-03-12T20:37:05.401Z,88.30
2023-03-12T20:39:33.159Z,88.34
2023-03-12T20:42:01.009Z,88.42
2023-03-12T20:44:28.810Z,88.52
2023-03-12T20:46:57.645Z,88.84
2023-03-12T20:49:25.663Z,89.00
2023-03-12T20:51:53.564Z,89.02
2023-03-12T20:54:21.632Z,89.12
2023-03-12T20:56:49.429Z,89.16
2023-03-12T20:59:17.327Z,89.18
2023-03-12T21:01:45.331Z,89.36
2023-03-12T21:04:13.252Z,89.20
2023-03-12T21:06:41.144Z,88.99
2023-03-12T21:09:09.041Z,89.06
2023-03-12T21:11:39.335Z,89.20
2023-03-12T21:14:07.105Z,89.01
2023-03-12T21:16:35.130Z,89.04
2023-03-12T21:19:03.005Z,89.15
2023-03-12T21:21:32.134Z,89.08
2023-03-12T21:24:00.613Z,89.08
2023-03-12T21:26:28.867Z,89.27
2023-03-12T21:28:56.702Z,89.09
2023-03-12T21:31:26.674Z,89.10
2023-03-12T21:33:56.201Z,89.13
2023-03-12T21:36:25.766Z,89.24
2023-03-12T21:38:53.793Z,89.16
2023-03-12T21:41:21.859Z,89.12
2023-03-12T21:43:49.668Z,89.12
2023-03-12T21:46:26.825Z,89.13
2023-03-12T21:48:54.868Z,88.92
2023-03-12T21:51:25.968Z,88.95
2023-03-12T21:53:56.394Z,88.97
2023-03-12T21:56:30.225Z,88.87
2023-03-12T21:58:58.824Z,88.94
2023-03-12T22:01:27.162Z,88.98
2023-03-12T22:03:55.385Z,89.00
2023-03-12T22:06:23.324Z,89.03
2023-03-12T22:08:52.317Z,89.07
2023-03-12T22:11:20.124Z,89.22
2023-03-12T22:13:48.676Z,89.38
2023-03-12T22:16:17.085Z,89.18
2023-03-12T22:18:46.544Z,89.37
2023-03-12T22:21:19.320Z,89.35
2023-03-12T22:23:48.465Z,89.44
2023-03-12T22:26:17.239Z,89.37
2023-03-12T22:28:54.859Z,89.33
2023-03-12T22:31:26.976Z,89.28
2023-03-12T22:33:56.197Z,89.30
2023-03-12T22:36:24.504Z,89.34
2023-03-12T22:38:53.102Z,89.33
2023-03-12T22:41:29.140Z,89.33
2023-03-12T22:44:03.348Z,89.58
2023-03-12T22:46:32.073Z,89.61
2023-03-12T22:49:02.288Z,89.46
2023-03-12T22:51:32.208Z,89.66
2023-03-12T22:54:00.481Z,89.64
2023-03-12T22:56:29.052Z,89.50
2023-03-12T22:58:56.923Z,89.62
2023-03-12T23:01:25.457Z,89.53
2023-03-12T23:03:53.831Z,89.47
2023-03-12T23:06:27.760Z,89.65
2023-03-12T23:08:56.553Z,89.63
2023-03-12T23:11:29.546Z,89.62
2023-03-12T23:13:57.385Z,89.56
2023-03-12T23:16:26.759Z,89.60
2023-03-12T23:18:56.401Z,89.54
2023-03-12T23:21:25.433Z,89.58
2023-03-12T23:23:54.005Z,89.45
2023-03-12T23:26:26.713Z,89.33
2023-03-12T23:28:56.311Z,89.25
2023-03-12T23:31:27.418Z,89.16
2023-03-12T23:33:56.759Z,89.26
2023-03-12T23:36:24.775Z,89.15
2023-03-12T23:38:52.713Z,89.16
2023-03-12T23:41:29.223Z,89.29
2023-03-12T23:43:58.818Z,89.25
2023-03-12T23:46:27.405Z,89.19
2023-03-12T23:48:55.555Z,89.30
2023-03-12T23:51:27.396Z,89.25
2023-03-12T23:53:59.699Z,89.25
2023-03-12T23:56:34.477Z,89.39
2023-03-12T23:59:04.545Z,89.43
